Time;durP1;ratioP1;P1;durP2;ratioP2;P2;SDS_P1;SDS_P2;PMS_P1;PMS_P2;Temp;Humidity;BMP_temperature;BMP_pressure;BME280_temperature;BME280_humidity;BME280_pressure;Samples;Min_cycle;Max_cycle;Signal;HPM_P1;HPM_P2
2024/01/03 00:02:02;;;;;;;15.68;3.28;;;;;;;;;;5095579;28;20694;-84
2024/01/03 00:04:28;;;;;;;16.15;3.10;;;;;;;;;;5112898;28;20447;-84
2024/01/03 00:06:55;;;;;;;16.50;3.30;;;;;;;;;;5105423;28;20479;-85
2024/01/03 00:09:21;;;;;;;15.70;3.10;;;;;;;;;;5108706;28;20409;-89
2024/01/03 00:11:47;;;;;;;10.65;2.40;;;;;;;;;;5096605;28;20437;-90
2024/01/03 00:14:23;;;;;;;13.20;2.63;;;;;;;;;;5091198;28;20881;-89
2024/01/03 00:16:49;;;;;;;16.00;2.78;;;;;;;;;;5076461;28;20402;-89
2024/01/03 00:19:20;;;;;;;15.70;3.65;;;;;;;;;;5076687;28;20406;-89
2024/01/03 00:21:47;;;;;;;14.17;2.87;;;;;;;;;;5094651;28;20742;-84
2024/01/03 00:24:14;;;;;;;12.75;2.45;;;;;;;;;;5088037;28;20396;-85
2024/01/03 00:26:49;;;;;;;15.52;2.75;;;;;;;;;;5114498;28;20393;-89
2024/01/03 00:29:25;;;;;;;15.43;2.80;;;;;;;;;;5113833;28;20458;-85
2024/01/03 00:31:51;;;;;;;14.18;2.85;;;;;;;;;;5097161;28;20840;-89
2024/01/03 00:34:24;;;;;;;11.05;2.40;;;;;;;;;;5111784;28;20428;-89
2024/01/03 00:36:53;;;;;;;12.18;2.70;;;;;;;;;;5087245;28;20390;-88
2024/01/03 00:39:25;;;;;;;15.32;2.83;;;;;;;;;;5091003;28;20407;-89
2024/01/03 00:42:00;;;;;;;11.48;2.70;;;;;;;;;;5092536;28;20402;-89
2024/01/03 00:44:26;;;;;;;14.18;2.80;;;;;;;;;;5093002;28;20409;-84
2024/01/03 00:46:54;;;;;;;14.57;2.70;;;;;;;;;;5093109;28;20396;-89
2024/01/03 00:49:20;;;;;;;17.23;2.85;;;;;;;;;;5094679;27;20396;-88
2024/01/03 00:51:47;;;;;;;15.70;2.80;;;;;;;;;;5093569;28;20393;-85
2024/01/03 00:54:14;;;;;;;13.50;2.80;;;;;;;;;;5095731;28;20400;-89
2024/01/03 00:56:40;;;;;;;16.08;2.92;;;;;;;;;;5095662;28;20392;-89
2024/01/03 00:59:06;;;;;;;15.75;2.65;;;;;;;;;;5090067;28;20435;-89
2024/01/03 01:01:32;;;;;;;12.43;2.33;;;;;;;;;;5079656;28;20384;-89
2024/01/03 01:03:58;;;;;;;17.05;3.25;;;;;;;;;;5094084;28;20400;-89
2024/01/03 01:06:25;;;;;;;19.17;3.00;;;;;;;;;;5090267;28;20392;-89
2024/01/03 01:08:51;;;;;;;13.60;3.00;;;;;;;;;;5093010;28;20451;-88
2024/01/03 01:11:20;;;;;;;14.63;2.70;;;;;;;;;;5095339;28;20981;-89
2024/01/03 01:13:49;;;;;;;15.00;3.03;;;;;;;;;;5093486;28;20398;-88
2024/01/03 01:16:26;;;;;;;13.73;3.38;;;;;;;;;;5075235;28;20401;-85
2024/01/03 01:18:57;;;;;;;12.18;2.47;;;;;;;;;;5128319;27;20400;-84
2024/01/03 01:21:26;;;;;;;14.85;3.13;;;;;;;;;;5112769;28;20793;-85
2024/01/03 01:23:52;;;;;;;12.00;2.67;;;;;;;;;;5089351;28;20406;-84
2024/01/03 01:26:21;;;;;;;18.02;3.05;;;;;;;;;;5092367;28;20467;-85
2024/01/03 01:28:47;;;;;;;16.48;3.17;;;;;;;;;;5091285;28;20435;-85
2024/01/03 01:31:13;;;;;;;14.10;3.00;;;;;;;;;;5091293;28;20422;-84
2024/01/03 01:33:39;;;;;;;12.20;2.58;;;;;;;;;;5079097;28;20398;-84
2024/01/03 01:36:05;;;;;;;12.27;2.90;;;;;;;;;;5091664;28;20974;-85
2024/01/03 01:38:32;;;;;;;14.95;2.53;;;;;;;;;;5098072;27;20925;-90
2024/01/03 01:40:58;;;;;;;16.95;2.92;;;;;;;;;;5104916;28;20484;-90
2024/01/03 01:43:24;;;;;;;10.85;2.55;;;;;;;;;;5111324;28;20404;-90
2024/01/03 01:45:50;;;;;;;13.45;2.50;;;;;;;;;;5088863;28;20405;-90
2024/01/03 01:48:17;;;;;;;28.15;3.20;;;;;;;;;;5089258;28;20433;-89
2024/01/03 01:50:43;;;;;;;14.57;2.53;;;;;;;;;;5106141;28;20467;-87
2024/01/03 01:53:10;;;;;;;14.13;2.78;;;;;;;;;;5077984;28;20419;-90
2024/01/03 01:55:37;;;;;;;13.27;2.70;;;;;;;;;;5093848;28;20855;-89
2024/01/03 01:58:03;;;;;;;14.15;2.30;;;;;;;;;;5092172;28;20465;-89
2024/01/03 02:00:30;;;;;;;12.95;2.95;;;;;;;;;;5078056;28;20404;-89
2024/01/03 02:02:56;;;;;;;13.82;2.42;;;;;;;;;;5111360;28;20411;-88
2024/01/03 02:05:22;;;;;;;11.93;2.67;;;;;;;;;;5107320;28;20788;-89
2024/01/03 02:07:48;;;;;;;13.05;2.60;;;;;;;;;;5073732;28;20402;-89
2024/01/03 02:10:15;;;;;;;13.10;3.07;;;;;;;;;;5090032;28;20420;-89
2024/01/03 02:12:41;;;;;;;14.27;2.55;;;;;;;;;;5104449;28;20940;-89
2024/01/03 02:15:10;;;;;;;15.63;2.70;;;;;;;;;;5092967;28;20399;-85
2024/01/03 02:17:38;;;;;;;12.07;2.90;;;;;;;;;;5093317;28;20442;-85
2024/01/03 02:20:04;;;;;;;11.35;2.53;;;;;;;;;;5092828;28;20440;-85
2024/01/03 02:22:33;;;;;;;11.88;2.25;;;;;;;;;;5090726;28;20420;-86
2024/01/03 02:24:59;;;;;;;12.73;2.38;;;;;;;;;;5092420;28;20396;-86
2024/01/03 02:27:52;;;;;;;10.32;2.33;;;;;;;;;;5093152;28;20404;-89
2024/01/03 02:30:24;;;;;;;10.27;2.25;;;;;;;;;;5100029;28;20432;-86
2024/01/03 02:32:51;;;;;;;10.40;2.42;;;;;;;;;;5092852;28;20538;-86
2024/01/03 02:35:42;;;;;;;8.90;2.40;;;;;;;;;;5091944;28;20397;-86
2024/01/03 02:38:08;;;;;;;14.00;2.45;;;;;;;;;;5092824;28;20502;-85
2024/01/03 02:40:39;;;;;;;13.05;2.47;;;;;;;;;;5093288;28;20435;-89
2024/01/03 02:43:14;;;;;;;9.85;2.22;;;;;;;;;;5109068;28;20404;-87
2024/01/03 02:48:49;;;;;;;10.60;2.40;;;;;;;;;;5074939;28;20404;-89
2024/01/03 02:51:42;;;;;;;8.30;1.80;;;;;;;;;;5077302;28;20438;-90
2024/01/03 02:54:34;;;;;;;12.23;2.38;;;;;;;;;;5093983;28;20952;-91
2024/01/03 02:57:09;;;;;;;11.43;2.20;;;;;;;;;;5022281;28;20429;-91
2024/01/03 03:00:09;;;;;;;;;;;;;;;;;;;;;
2024/01/03 03:03:17;;;;;;;12.77;2.17;;;;;;;;;;5095213;28;20400;-91
2024/01/03 03:06:24;;;;;;;8.52;2.20;;;;;;;;;;5048382;28;20749;-85
2024/01/03 03:09:02;;;;;;;11.25;2.40;;;;;;;;;;5000458;28;20405;-91
2024/01/03 03:11:37;;;;;;;11.40;2.35;;;;;;;;;;4992738;28;20987;-89
2024/01/03 03:14:15;;;;;;;12.00;2.65;;;;;;;;;;4993568;28;20408;-90
2024/01/03 03:16:44;;;;;;;7.70;1.85;;;;;;;;;;5009179;28;20410;-90
2024/01/03 03:19:17;;;;;;;8.82;1.90;;;;;;;;;;5063137;28;20425;-90
2024/01/03 03:21:48;;;;;;;9.88;2.20;;;;;;;;;;5113955;28;20960;-91
2024/01/03 03:24:26;;;;;;;11.45;2.00;;;;;;;;;;5098005;28;20400;-87
2024/01/03 03:26:55;;;;;;;10.00;2.17;;;;;;;;;;5112584;28;20415;-90
2024/01/03 03:29:21;;;;;;;8.68;2.17;;;;;;;;;;5110210;28;20428;-88
2024/01/03 03:31:47;;;;;;;9.50;2.27;;;;;;;;;;5084878;28;20480;-87
2024/01/03 03:34:16;;;;;;;7.10;2.00;;;;;;;;;;5093637;28;20441;-87
2024/01/03 03:36:45;;;;;;;10.45;2.30;;;;;;;;;;5084893;28;20491;-87
2024/01/03 03:39:11;;;;;;;9.88;2.08;;;;;;;;;;5096914;28;20473;-87
2024/01/03 03:41:40;;;;;;;11.57;2.00;;;;;;;;;;5095328;28;20427;-87
2024/01/03 03:44:06;;;;;;;9.25;2.13;;;;;;;;;;5114081;28;20493;-87
2024/01/03 03:46:32;;;;;;;9.43;1.95;;;;;;;;;;5082532;28;20893;-87
2024/01/03 03:49:39;;;;;;;7.88;1.70;;;;;;;;;;5114704;28;20407;-88
2024/01/03 03:52:18;;;;;;;8.80;1.60;;;;;;;;;;5023034;28;20481;-87
2024/01/03 03:55:07;;;;;;;6.53;1.70;;;8.80;99.90;;;;;;5056241;28;20390;-90
2024/01/03 03:57:33;;;;;;;8.57;1.90;;;;;;;;;;5079843;28;20433;-89
2024/01/03 04:00:39;;;;;;;10.13;1.70;;;;;;;;;;5094759;28;20413;-87
2024/01/03 04:03:07;;;;;;;10.37;1.87;;;;;;;;;;5079676;28;20492;-87
2024/01/03 04:05:34;;;;;;;8.10;2.20;;;;;;;;;;5086373;28;20411;-87
2024/01/03 04:08:05;;;;;;;10.68;2.00;;;;;;;;;;5095319;28;20748;-89
2024/01/03 04:10:31;;;;;;;8.75;1.70;;;;;;;;;;5113587;28;20420;-90
2024/01/03 04:13:00;;;;;;;7.65;2.45;;;;;;;;;;5096471;28;20399;-89
2024/01/03 04:15:26;;;;;;;8.93;1.95;;;;;;;;;;5092646;28;20457;-90
2024/01/03 04:17:52;;;;;;;8.55;2.17;;;;;;;;;;5095615;28;20489;-89
2024/01/03 04:20:20;;;;;;;7.20;1.63;;;;;;;;;;5096475;28;20916;-88
2024/01/03 04:22:47;;;;;;;8.50;1.83;;;;;;;;;;5110578;28;20442;-90
2024/01/03 04:25:19;;;;;;;6.83;1.80;;;;;;;;;;5107310;28;20762;-86
2024/01/03 04:27:45;;;;;;;5.97;1.70;;;;;;;;;;5112777;28;20428;-86
2024/01/03 04:30:13;;;;;;;5.13;1.65;;;;;;;;;;5111457;28;20454;-85
2024/01/03 04:32:39;;;;;;;4.60;1.33;;;;;;;;;;5110012;28;20390;-88
2024/01/03 04:35:06;;;;;;;5.93;1.48;;;;;;;;;;5098937;28;20530;-84
2024/01/03 04:37:33;;;;;;;7.35;2.00;;;;;;;;;;5109706;28;20432;-88
2024/01/03 04:39:59;;;;;;;6.60;2.40;;;;;;;;;;5092094;28;20431;-87
2024/01/03 04:42:25;;;;;;;9.70;2.40;;;;;;;;;;5106201;28;20408;-86
2024/01/03 04:44:52;;;;;;;9.43;2.30;;;;;;;;;;5087861;28;20497;-89
2024/01/03 04:47:18;;;;;;;11.00;2.30;;;;;;;;;;5095899;28;20427;-88
2024/01/03 04:49:44;;;;;;;9.82;2.20;;;;;;;;;;5095207;28;20885;-91
2024/01/03 04:52:11;;;;;;;11.73;2.60;;;;;;;;;;5094586;28;20525;-89
2024/01/03 04:54:38;;;;;;;13.75;2.60;;;;;;;;;;5096226;28;20393;-89
2024/01/03 04:57:04;;;;;;;12.27;2.35;;;;;;;;;;5096106;28;20404;-84
2024/01/03 04:59:30;;;;;;;9.20;1.98;;;;;;;;;;5110832;28;20400;-84
2024/01/03 05:01:59;;;;;;;8.32;2.03;;;;;;;;;;5088296;28;20392;-90
2024/01/03 05:04:25;;;;;;;8.03;1.90;;;;;;;;;;5094249;28;20492;-90
2024/01/03 05:06:51;;;;;;;11.98;2.15;;;;;;;;;;5092223;28;20392;-88
2024/01/03 05:09:17;;;;;;;10.30;1.75;;;;;;;;;;5094811;28;20424;-90
2024/01/03 05:11:44;;;;;;;8.97;1.90;;;;;;;;;;5090187;28;20436;-88
2024/01/03 05:14:10;;;;;;;9.25;1.80;;;;;;;;;;5076434;28;20811;-85
2024/01/03 05:16:36;;;;;;;14.93;2.85;;;;;;;;;;5108561;28;20475;-89
2024/01/03 05:19:02;;;;;;;20.33;4.05;;;;;;;;;;5095301;28;20794;-88
2024/01/03 05:21:28;;;;;;;24.75;4.50;;;;;;;;;;5083302;28;20432;-88
2024/01/03 05:23:57;;;;;;;20.88;4.13;;;;;;;;;;5073358;28;20469;-88
2024/01/03 05:26:23;;;;;;;26.92;4.13;;;;;;;;;;5095943;28;20479;-89
2024/01/03 05:28:49;;;;;;;28.70;5.43;;;;;;;;;;5095942;28;20944;-90
2024/01/03 05:31:15;;;;;;;25.60;5.00;;;;;;;;;;5111401;28;20503;-88
2024/01/03 05:33:41;;;;;;;27.90;4.93;;;;;;;;;;5111877;28;20452;-91
2024/01/03 05:36:07;;;;;;;27.38;4.00;;;;;;;;;;5093841;28;20506;-90
2024/01/03 05:38:37;;;;;;;29.30;4.43;;;;;;;;;;5093467;28;20436;-83
2024/01/03 05:41:03;;;;;;;26.13;4.43;;;;;;;;;;5110455;28;20431;-90
2024/01/03 05:43:29;;;;;;;24.38;4.60;;;;;;;;;;5074418;28;20425;-89
2024/01/03 05:45:58;;;;;;;26.63;4.90;;;;;;;;;;5082776;28;20441;-91
2024/01/03 05:48:26;;;;;;;32.20;4.75;;;;;;;;;;5094523;28;20764;-84
2024/01/03 05:50:55;;;;;;;23.17;4.45;;;;;;;;;;5085501;28;20425;-89
2024/01/03 05:53:26;;;;;;;32.15;5.05;;;;;;;;;;5110086;28;20912;-89
2024/01/03 05:55:52;;;;;;;32.80;4.93;;;;;;;;;;5088689;28;20392;-90
2024/01/03 05:58:18;;;;;;;23.90;4.63;;;;;;;;;;5095040;28;20404;-90
2024/01/03 06:00:44;;;;;;;24.27;4.73;;;;;;;;;;5071508;28;20422;-89
2024/01/03 06:03:11;;;;;;;26.75;4.15;;;;;;;;;;5109965;28;20438;-84
2024/01/03 06:05:37;;;;;;;23.92;4.50;;;;;;;;;;5093269;28;20478;-89
2024/01/03 06:08:04;;;;;;;31.97;4.70;;;;;;;;;;5078766;28;20891;-89
2024/01/03 06:10:30;;;;;;;24.98;4.57;;;;;;;;;;5090891;28;20455;-89
2024/01/03 06:12:56;;;;;;;22.85;5.03;;;;;;;;;;5085914;28;20400;-89
2024/01/03 06:15:22;;;;;;;23.83;4.78;;;;;;;;;;5092325;28;20412;-89
2024/01/03 06:17:49;;;;;;;22.88;5.05;;;;;;;;;;5083922;28;20398;-88
2024/01/03 06:20:15;;;;;;;22.23;4.05;;;;;;;;;;5110237;28;20479;-89
2024/01/03 06:22:41;;;;;;;20.65;4.57;;;;;;;;;;5086832;28;20409;-90
2024/01/03 06:25:07;;;;;;;29.42;4.97;;;;;;;;;;5082190;28;20405;-90
2024/01/03 06:27:33;;;;;;;25.17;3.95;;;;;;;;;;5079475;28;20541;-88
2024/01/03 06:30:00;;;;;;;22.40;4.05;;;;;;;;;;5083052;28;20444;-91
2024/01/03 06:32:26;;;;;;;24.87;4.87;;;;;;;;;;5091612;28;20975;-91
2024/01/03 06:34:52;;;;;;;26.73;4.60;;;;;;;;;;5086819;28;20398;-90
2024/01/03 06:37:18;;;;;;;26.52;4.82;;;;;;;;;;5093629;28;20884;-91
2024/01/03 06:39:47;;;;;;;31.55;4.93;;;;;;;;;;5094760;28;20722;-90
2024/01/03 06:42:16;;;;;;;30.65;5.35;;;;;;;;;;5091917;28;20416;-89
2024/01/03 06:44:42;;;;;;;30.48;5.55;;;;;;;;;;5089343;28;20428;-89
2024/01/03 06:47:11;;;;;;;33.35;4.90;;;;;;;;;;5094224;28;20415;-89
2024/01/03 06:49:40;;;;;;;24.55;4.22;;;;;;;;;;5084805;28;20426;-89
2024/01/03 06:55:22;;;;;;;17.70;3.30;;;;;;;;;;5112359;28;20453;-88
2024/01/03 06:57:49;;;;;;;16.13;3.42;;;;;;;;;;5114870;28;20428;-89
2024/01/03 07:00:15;;;;;;;17.40;3.03;;;;;;;;;;5084156;28;20404;-83
2024/01/03 07:02:41;;;;;;;19.90;3.33;;;;;;;;;;5100188;28;20454;-82
2024/01/03 07:05:07;;;;;;;21.92;3.60;;;;;;;;;;5094196;28;20476;-89
2024/01/03 07:07:33;;;;;;;19.45;3.75;;;;;;;;;;5101830;28;20416;-89
2024/01/03 07:09:59;;;;;;;17.90;2.90;;;;;;;;;;5101407;28;20416;-88
2024/01/03 07:12:26;;;;;;;19.27;3.60;;;;;;;;;;5085305;28;20475;-90
2024/01/03 07:14:52;;;;;;;17.48;2.92;;;;;;;;;;5079802;28;20402;-91
2024/01/03 07:17:18;;;;;;;15.63;3.13;;;;;;;;;;5066230;28;20508;-91
2024/01/03 07:19:44;;;;;;;14.45;3.03;;;;;;;;;;5090082;28;20404;-91
2024/01/03 07:22:10;;;;;;;14.85;2.90;;;;;;;;;;5105892;28;20399;-91
2024/01/03 07:24:39;;;;;;;11.98;2.88;;;;;;;;;;5081107;28;20425;-92
2024/01/03 07:27:05;;;;;;;16.83;3.15;;;;;;;;;;5100113;28;20409;-91
2024/01/03 07:29:31;;;;;;;17.38;3.47;;;;;;;;;;5098252;28;20785;-91
2024/01/03 07:31:57;;;;;;;24.15;3.60;;;;;;;;;;5081790;28;20404;-91
2024/01/03 07:34:25;;;;;;;19.20;3.77;;;;;;;;;;5095821;28;20873;-91
2024/01/03 07:36:51;;;;;;;22.80;3.90;;;;;;;;;;5116385;28;20404;-91
2024/01/03 07:39:17;;;;;;;21.95;4.10;;;;;;;;;;5086132;28;20473;-83
2024/01/03 07:41:43;;;;;;;20.38;3.53;;;;;;;;;;5092652;28;20403;-84
2024/01/03 07:44:09;;;;;;;24.27;4.03;;;;;;;;;;5097954;28;20414;-91
2024/01/03 07:46:36;;;;;;;19.55;3.45;;;;;;;;;;5088238;28;20898;-92
2024/01/03 07:49:02;;;;;;;15.45;3.20;;;;;;;;;;5079080;28;20465;-93
2024/01/03 07:51:28;;;;;;;17.02;3.70;;;;;;;;;;5093215;28;20423;-85
2024/01/03 07:53:54;;;;;;;17.58;3.60;;;;;;;;;;5095820;28;20411;-84
2024/01/03 07:56:22;;;;;;;17.13;3.55;;;;;;;;;;5103221;28;20419;-94
2024/01/03 07:58:49;;;;;;;21.17;3.80;;;;;;;;;;5093689;28;20467;-86
2024/01/03 08:01:17;;;;;;;17.17;3.08;;;;;;;;;;5089425;28;20441;-85
2024/01/03 08:03:46;;;;;;;17.98;3.70;;;;;;;;;;5083617;28;20420;-91
2024/01/03 08:06:18;;;;;;;18.23;3.20;;;;;;;;;;5087353;28;20497;-86
2024/01/03 08:08:45;;;;;;;20.75;3.60;;;;;;;;;;5097585;28;20428;-85
2024/01/03 08:11:28;;;;;;;19.80;3.17;;;;;;;;;;5114681;28;20420;-84
2024/01/03 08:13:55;;;;;;;18.45;3.17;;;;;;;;;;5094235;28;20414;-86
2024/01/03 08:16:21;;;;;;;18.85;3.65;;;;;;;;;;5094322;28;20405;-84
2024/01/03 08:18:47;;;;;;;22.88;3.80;;;;;;;;;;5094449;28;20527;-85
2024/01/03 08:21:14;;;;;;;19.77;3.90;;;;;;;;;;5099342;28;20428;-91
2024/01/03 08:23:42;;;;;;;17.70;3.28;;;;;;;;;;5099135;28;20400;-90
2024/01/03 08:26:12;;;;;;;21.92;3.55;;;;;;;;;;5100213;28;20404;-92
2024/01/03 08:28:40;;;;;;;20.30;3.57;;;;;;;;;;5098428;28;20442;-84
2024/01/03 08:31:06;;;;;;;23.77;3.90;;;;;;;;;;5096856;28;20428;-85
2024/01/03 08:33:36;;;;;;;19.30;3.30;;;;;;;;;;5098219;28;20999;-85
2024/01/03 08:36:05;;;;;;;19.75;3.13;;;;;;;;;;5100915;28;20397;-93
2024/01/03 08:38:31;;;;;;;18.80;3.20;;;;;;;;;;5101688;28;20481;-91
2024/01/03 08:40:57;;;;;;;18.55;3.45;;;;;;;;;;5119506;28;20470;-93
2024/01/03 08:43:23;;;;;;;12.35;2.72;;;;;;;;;;5102585;28;20407;-92
2024/01/03 08:45:49;;;;;;;18.65;3.25;;;;;;;;;;5090138;28;20420;-84
2024/01/03 08:48:16;;;;;;;15.93;3.25;;;;;;;;;;5111786;28;20408;-84
2024/01/03 08:50:43;;;;;;;14.23;3.30;;;;;;;;;;5093071;28;20420;-84
2024/01/03 08:53:09;;;;;;;17.73;3.27;;;;;;;;;;5088223;28;20403;-85
2024/01/03 08:55:35;;;;;;;17.20;3.40;;;;;;;;;;5101266;28;20412;-83
2024/01/03 08:58:02;;;;;;;15.53;3.03;;;;;;;;;;5108571;28;20524;-83
2024/01/03 09:00:28;;;;;;;23.67;4.00;;;;;;;;;;5087581;28;20404;-84
2024/01/03 09:03:00;;;;;;;17.63;3.30;;;;;;;;;;5089779;28;20454;-84
2024/01/03 09:05:26;;;;;;;17.95;3.63;;;;;;;;;;5092237;28;20492;-85
2024/01/03 09:07:52;;;;;;;17.02;3.42;;;;;;;;;;5093931;28;20804;-85
2024/01/03 09:10:19;;;;;;;16.75;3.50;;;;;;;;;;5091139;28;20428;-85
2024/01/03 09:12:45;;;;;;;17.25;3.55;;;;;;;;;;5092810;28;20602;-85
2024/01/03 09:15:11;;;;;;;14.55;2.92;;;;;;;;;;5079976;28;20425;-86
2024/01/03 09:17:42;;;;;;;18.67;3.45;;;;;;;;;;5108303;28;20404;-85
2024/01/03 09:20:09;;;;;;;18.27;4.57;;;;;;;;;;5088168;28;20877;-86
2024/01/03 09:22:35;;;;;;;18.10;3.50;;;;;;;;;;5076329;28;20404;-87
2024/01/03 09:25:01;;;;;;;18.08;3.35;;;;;;;;;;5109796;28;20525;-84
2024/01/03 09:27:30;;;;;;;17.65;3.50;;;;;;;;;;5107001;28;20412;-87
2024/01/03 09:29:56;;;;;;;22.13;3.33;;;;;;;;;;5110223;28;20424;-89
2024/01/03 09:32:24;;;;;;;13.30;3.05;;;;;;;;;;5114543;28;20803;-90
2024/01/03 09:34:51;;;;;;;17.30;2.70;;;;;;;;;;5113889;28;20475;-91
2024/01/03 09:37:17;;;;;;;18.25;3.53;;;;;;;;;;5105892;28;20470;-89
2024/01/03 09:39:43;;;;;;;11.88;2.70;;;;;;;;;;5126217;28;20756;-88
2024/01/03 09:42:09;;;;;;;13.10;3.28;;;;;;;;;;5108874;28;20443;-90
2024/01/03 09:44:36;;;;;;;13.23;3.03;;;;;;;;;;5122063;28;20400;-89
2024/01/03 09:47:02;;;;;;;15.93;2.92;;;;;;;;;;5098017;28;20398;-91
2024/01/03 09:49:47;;;;;;;14.90;2.70;;;;;;;;;;5091523;28;20402;-90
2024/01/03 09:52:14;;;;;;;14.88;2.78;;;;;;;;;;5112701;28;20404;-90
2024/01/03 09:54:43;;;;;;;14.30;2.50;;;;;;;;;;5094969;28;20414;-88
2024/01/03 09:57:10;;;;;;;12.32;2.67;;;;;;;;;;5105218;28;20477;-90
2024/01/03 09:59:50;;;;;;;13.32;3.00;;;;;;;;;;5112439;28;20392;-89
2024/01/03 10:02:16;;;;;;;11.57;2.67;;;;;;;;;;5089268;28;20427;-90
2024/01/03 10:04:46;;;;;;;12.48;2.58;;;;;;;;;;5079174;28;20394;-91
2024/01/03 10:07:14;;;;;;;12.98;2.58;;;;;;;;;;5095437;28;20435;-91
2024/01/03 10:10:02;;;;;;;8.18;2.10;;;;;;;;;;5095608;28;20721;-89
2024/01/03 10:12:39;;;;;;;13.48;2.30;;;;;;;;;;5100579;28;20410;-91
2024/01/03 10:15:33;;;;;;;11.48;2.33;;;;;;;;;;5089086;28;20414;-90
2024/01/03 10:18:09;;;;;;;10.00;2.25;;;;;;;;;;5095142;28;20399;-91
2024/01/03 10:20:35;;;;;;;11.30;2.50;;;;;;;;;;5075170;28;20442;-90
2024/01/03 10:23:09;;;;;;;15.17;2.30;;;;;;;;;;5104528;28;20420;-91
2024/01/03 10:25:35;;;;;;;12.35;2.40;;;;;;;;;;5095151;28;20411;-90
2024/01/03 10:28:11;;;;;;;12.13;2.55;;;;;;;;;;5098910;28;20400;-89
2024/01/03 10:31:08;;;;;;;11.30;2.60;;;;;;;;;;5086573;28;20868;-91
2024/01/03 10:33:37;;;;;;;9.02;2.38;;;;;;;;;;5106665;28;20494;-91
2024/01/03 10:36:12;;;;;;;9.02;2.00;;;;;;;;;;5092381;28;20396;-91
2024/01/03 10:38:38;;;;;;;8.57;2.33;;;;;;;;;;5099003;28;20403;-91
2024/01/03 10:41:04;;;;;;;10.10;2.47;;;;;;;;;;5107260;28;20407;-91
2024/01/03 10:43:52;;;;;;;8.43;1.90;;;;;;;;;;5111325;28;20912;-90
2024/01/03 10:53:31;;;;;;;;;;;;;;;;;;;;;
2024/01/03 10:56:09;;;;;;;11.60;2.85;;;;;;;;;;5101497;28;20388;-92
2024/01/03 10:58:42;;;;;;;14.57;2.88;;;;;;;;;;5089780;28;20451;-91
2024/01/03 11:01:20;;;;;;;13.77;2.95;;;;;;;;;;5095907;28;20444;-90
2024/01/03 11:03:54;;;;;;;17.80;3.40;;;;;;;;;;5083170;28;20410;-91
2024/01/03 11:06:32;;;;;;;15.27;3.13;;;;;;;;;;5076701;28;20909;-92
2024/01/03 11:08:59;;;;;;;16.63;3.73;;;;;;;;;;5082436;28;20486;-93
2024/01/03 11:11:43;;;;;;;14.45;3.30;;;;;;;;;;5086367;28;20424;-92
2024/01/03 11:14:19;;;;;;;21.80;4.07;;;;;;;;;;5079956;28;20450;-92
2024/01/03 11:16:45;;;;;;;21.50;4.43;;;;;;;;;;5098414;28;20388;-93
2024/01/03 11:19:12;;;;;;;20.60;3.47;;;;;;;;;;5078179;28;20420;-92
2024/01/03 11:21:38;;;;;;;20.07;3.00;;;;;;;;;;5075105;28;20408;-91
2024/01/03 11:24:27;;;;;;;18.58;3.63;;;;;;;;;;5101653;28;20409;-92
2024/01/03 11:26:56;;;;;;;22.23;3.90;;;;;;;;;;5091572;28;20913;-91
2024/01/03 11:29:35;;;;;;;20.30;4.30;;;;;;;;;;5095837;28;20947;-92
2024/01/03 11:32:03;;;;;;;19.65;3.45;;;;;;;;;;5089289;28;20423;-92
2024/01/03 11:34:48;;;;;;;19.57;3.33;;;;;;;;;;5097293;28;20990;-92
2024/01/03 11:37:18;;;;;;;16.58;3.17;;;;;;;;;;5092471;28;20388;-90
2024/01/03 11:39:50;;;;;;;16.80;3.67;;;;;;;;;;5098888;28;20392;-89
2024/01/03 11:42:20;;;;;;;18.50;3.37;;;;;;;;;;5105760;28;20390;-91
2024/01/03 11:44:46;;;;;;;17.65;3.30;;;;;;;;;;5090546;28;20925;-91
2024/01/03 11:47:13;;;;;;;15.63;3.20;;;;;;;;;;5108445;28;20392;-90
2024/01/03 11:49:39;;;;;;;16.23;3.45;;;;;;;;;;5094367;28;20754;-91
2024/01/03 11:52:05;;;;;;;17.73;3.27;;;;;;;;;;5094242;28;20396;-92
2024/01/03 11:54:34;;;;;;;16.17;3.42;;;;;;;;;;5095273;28;20895;-91
2024/01/03 11:57:11;;;;;;;16.43;3.50;;;;;;;;;;5091166;28;20543;-92
2024/01/03 11:59:38;;;;;;;19.70;4.10;;;;;;;;;;5085520;28;20471;-91
2024/01/03 12:02:04;;;;;;;20.77;3.60;;;;;;;;;;5077973;28;20406;-91
2024/01/03 12:04:31;;;;;;;17.48;3.65;;;;;;;;;;5098553;28;20401;-91
2024/01/03 12:07:01;;;;;;;15.52;3.17;;;;;;;;;;5100941;28;20416;-90
2024/01/03 12:09:32;;;;;;;21.53;3.60;;;;;;;;;;5074606;28;20394;-88
2024/01/03 12:11:58;;;;;;;17.75;3.00;;;;;;;;;;5091594;28;20407;-89
2024/01/03 12:14:24;;;;;;;17.35;3.22;;;;;;;;;;5094946;28;20459;-89
2024/01/03 12:16:54;;;;;;;17.98;3.78;;;;;;;;;;5094222;28;20418;-90
2024/01/03 12:19:24;;;;;;;15.50;3.38;;;;;;;;;;5094127;28;20402;-89
2024/01/03 12:22:08;;;;;;;17.05;3.33;;;;;;;;;;5094293;28;20408;-88
2024/01/03 12:24:40;;;;;;;15.57;3.20;;;;;;;;;;5061424;28;20912;-88
2024/01/03 12:27:10;;;;;;;16.33;3.40;;;;;;;;;;5114017;28;20401;-89
2024/01/03 12:29:41;;;;;;;18.52;3.30;;;;;;;;;;5115624;28;20404;-89
2024/01/03 12:32:10;;;;;;;19.48;3.50;;;;;;;;;;5094165;28;20405;-89
2024/01/03 12:34:37;;;;;;;20.83;4.07;;;;;;;;;;5090491;28;20966;-90
2024/01/03 12:37:05;;;;;;;18.40;3.50;;;;;;;;;;5115102;28;20400;-90
2024/01/03 12:39:35;;;;;;;17.40;3.22;;;;;;;;;;5083154;28;20422;-89
2024/01/03 12:42:04;;;;;;;17.33;3.65;;;;;;;;;;5087985;28;20925;-90
2024/01/03 12:44:31;;;;;;;16.00;3.30;;;;;;;;;;5097470;28;20436;-90
2024/01/03 12:46:57;;;;;;;19.83;4.75;;;;;;;;;;5082658;28;20402;-89
2024/01/03 12:49:23;;;;;;;18.10;3.78;;;;;;;;;;5102606;28;20415;-90
2024/01/03 12:51:49;;;;;;;18.90;4.20;;;;;;;;;;5100131;28;20420;-91
2024/01/03 12:54:35;;;;;;;19.23;3.70;;;;;;;;;;5098168;28;20418;-91
2024/01/03 12:57:06;;;;;;;17.05;3.38;;;;;;;;;;5108050;28;20400;-90
2024/01/03 12:59:35;;;;;;;18.02;3.70;;;;;;;;;;5091563;28;20413;-87
2024/01/03 13:02:01;;;;;;;17.80;3.88;;;;;;;;;;5088757;28;20396;-90
2024/01/03 13:04:36;;;;;;;16.05;3.40;;;;;;;;;;5104146;28;20405;-91
2024/01/03 13:07:05;;;;;;;21.15;3.90;;;;;;;;;;5087570;28;20463;-92
2024/01/03 13:09:32;;;;;;;14.57;3.17;;;;;;;;;;5077946;28;20402;-87
2024/01/03 13:11:58;;;;;;;16.67;3.47;;;;;;;;;;5086786;28;20416;-91
2024/01/03 13:14:27;;;;;;;15.07;3.20;;;;;;;;;;5098904;28;20412;-93
2024/01/03 13:16:56;;;;;;;16.92;3.25;;;;;;;;;;5072040;28;20410;-92
2024/01/03 13:19:32;;;;;;;14.88;3.10;;;;;;;;;;5098486;28;20422;-89
2024/01/03 13:21:59;;;;;;;12.43;3.20;;;;;;;;;;5086511;28;20455;-82
2024/01/03 13:24:26;;;;;;;15.32;3.00;;;;;;;;;;5110807;28;20388;-91
2024/01/03 13:26:52;;;;;;;10.88;2.60;;;;;;;;;;5098320;28;20713;-89
2024/01/03 13:29:21;;;;;;;12.17;3.00;;;;;;;;;;5097475;28;20438;-92
2024/01/03 13:31:47;;;;;;;10.40;2.50;;;;;;;;;;5094238;28;20416;-92
2024/01/03 13:34:14;;;;;;;13.90;3.10;;;;;;;;;;5089768;28;20499;-91
2024/01/03 13:36:43;;;;;;;13.70;2.95;;;;;;;;;;5092974;28;20414;-91
2024/01/03 13:39:11;;;;;;;16.60;3.35;;;;;;;;;;5107742;28;20800;-91
2024/01/03 13:41:37;;;;;;;18.87;3.30;;;;;;;;;;5092614;28;20458;-91
2024/01/03 13:44:06;;;;;;;14.23;3.50;;;;;;;;;;5090169;28;20404;-89
2024/01/03 13:46:33;;;;;;;20.45;3.85;;;;;;;;;;5085606;28;20397;-91
2024/01/03 13:49:00;;;;;;;15.27;3.20;;;;;;;;;;5092870;28;20757;-91
2024/01/03 13:51:35;;;;;;;14.07;3.10;;;;;;;;;;5106605;28;20470;-90
2024/01/03 13:54:01;;;;;;;15.85;3.10;;;;;;;;;;5093338;28;20956;-89
2024/01/03 13:56:27;;;;;;;19.15;3.97;;;;;;;;;;5094310;28;20388;-90
2024/01/03 13:58:56;;;;;;;15.73;2.90;;;;;;;;;;5091039;28;20777;-91
2024/01/03 14:01:22;;;;;;;18.60;3.03;;;;;;;;;;5093990;28;20762;-92
2024/01/03 14:03:48;;;;;;;12.02;2.65;;;;;;;;;;5077673;28;20403;-91
2024/01/03 14:06:15;;;;;;;12.68;2.50;;;;;;;;;;5110215;28;20960;-89
2024/01/03 14:08:42;;;;;;;16.67;2.70;;;;;;;;;;5105545;28;20405;-88
2024/01/03 14:11:10;;;;;;;14.77;2.97;;;;;;;;;;5104189;28;20428;-89
2024/01/03 14:13:40;;;;;;;13.48;2.97;;;;;;;;;;5085642;28;20414;-89
2024/01/03 14:16:07;;;;;;;13.80;2.70;;;;;;;;;;5091058;28;20419;-89
2024/01/03 14:18:36;;;;;;;14.82;2.92;;;;;;;;;;5090001;28;20419;-91
2024/01/03 14:21:07;;;;;;;16.35;3.05;;;;;;;;;;5086359;28;20915;-91
2024/01/03 14:23:37;;;;;;;14.55;2.67;;;;;;;;;;5086646;28;20416;-90
2024/01/03 14:26:10;;;;;;;14.45;3.50;;;;;;;;;;5105539;28;20427;-89
2024/01/03 14:28:38;;;;;;;15.90;3.10;;;;;;;;;;5108987;28;20450;-89
2024/01/03 14:31:04;;;;;;;12.07;2.92;;;;;;;;;;5092635;28;20428;-90
2024/01/03 14:33:33;;;;;;;15.23;3.30;;;;;;;;;;5076613;28;20772;-90
2024/01/03 14:35:59;;;;;;;16.85;3.10;;;;;;;;;;5085591;28;20761;-89
2024/01/03 14:38:29;;;;;;;19.10;3.30;;;;;;;;;;5092077;28;20412;-89
2024/01/03 14:40:55;;;;;;;13.77;2.97;;;;;;;;;;5090701;28;20428;-90
2024/01/03 14:43:31;;;;;;;13.60;2.80;;;;;;;;;;5079228;28;20428;-89
2024/01/03 14:45:59;;;;;;;14.40;2.58;;;;;;;;;;5100043;28;20424;-89
2024/01/03 14:48:25;;;;;;;16.42;2.97;;;;;;;;;;5089071;28;20420;-90
2024/01/03 14:50:52;;;;;;;16.20;3.40;;;;;;;;;;5087192;28;20420;-88
2024/01/03 14:53:18;;;;;;;11.40;3.00;;;;;;;;;;5087104;28;20451;-90
2024/01/03 14:55:47;;;;;;;12.50;2.67;;;;;;;;;;5105861;28;21214;-91
2024/01/03 14:58:16;;;;;;;9.32;2.20;;;;;;;;;;5086613;28;20397;-92
2024/01/03 15:00:44;;;;;;;9.25;2.00;;;;;;;;;;5098911;28;20503;-90